»·PEaware :: N69PL KSNA-KBUR

N69PL :: KSNA-KBUR

FLIGHT INFORMATION

Flight Status: Arrived
Operator: Privately registered:
United States
More flights under this callsign
Pilot: Julian C. (16982)
Aircraft: BEECH AIRCRAFT BONANZA
(BE36)
More flights by this aircraft type
Origin: KSNA John Wayne-Orange Co
United States
Destination: KBUR Bob Hope-Burbank
United States
More flights between these airports :: More routes between these airports
Route: +SLI V23 POPPR SMO125R SMO SMO311R SILEX
File this flight plan on PilotEdge
Remarks: i-3rating
Altitude:
(Current/Filed)
4,000ft
Speed:
(Current/Filed)
160kts
Departed: 07-Feb-19 07:13 PM
Arrived: 07-Feb-19 08:04 PM
Distance/Time
Traveled:
40nm/0:51
Distance/Time
To Go:
Arrived

Flight Plot

Page will automatically refresh every two minutes.


Map Options




Map Legend


Flown Route
Filed Route
Departure Airport
Arrival Airport
Navaid (VOR, NDB)
Fix

Horizontal Profiles

Position Reports

Time Latitude Longitude Heading Altitude Ground
Speed
07-Feb-19 19:00 33.674952 -117.864955 118 60ft 0kts
07-Feb-19 19:01 33.674953 -117.864955 118 60ft 0kts
07-Feb-19 19:02 33.674953 -117.864955 118 60ft 0kts
07-Feb-19 19:03 33.674917 -117.864902 117 60ft 2kts
07-Feb-19 19:04 33.675310 -117.865489 339 60ft 0kts
07-Feb-19 19:05 33.675314 -117.865491 339 60ft 0kts
07-Feb-19 19:06 33.675315 -117.865491 339 60ft 0kts
07-Feb-19 19:07 33.675179 -117.865753 30 60ft 17kts
07-Feb-19 19:08 33.676919 -117.865370 61 60ft 11kts
07-Feb-19 19:09 33.679973 -117.863686 297 60ft 0kts
07-Feb-19 19:10 33.679974 -117.863689 296 60ft 0kts
07-Feb-19 19:11 33.679974 -117.863689 296 60ft 0kts
07-Feb-19 19:12 33.676584 -117.866391 206 60ft 71kts
07-Feb-19 19:13 33.661952 -117.885465 233 1260ft 77kts
07-Feb-19 19:14 33.646949 -117.904908 236 2363ft 85kts
07-Feb-19 19:15 33.631603 -117.930156 231 3536ft 102kts
07-Feb-19 19:16 33.608875 -117.959515 228 4019ft 152kts
07-Feb-19 19:17 33.578792 -118.000785 230 3979ft 168kts
07-Feb-19 19:18 33.557614 -118.048614 275 3969ft 169kts
07-Feb-19 19:19 33.588380 -118.090512 319 3962ft 173kts
07-Feb-19 19:20 33.626163 -118.126070 319 3958ft 173kts
07-Feb-19 19:21 33.664322 -118.161408 319 3944ft 174kts
07-Feb-19 19:22 33.702972 -118.196620 320 3939ft 175kts
07-Feb-19 19:23 33.743059 -118.230093 331 3949ft 178kts
07-Feb-19 19:24 33.787787 -118.256258 329 3942ft 179kts
07-Feb-19 19:25 33.833171 -118.284298 330 3722ft 186kts
07-Feb-19 19:26 33.873366 -118.320144 318 3720ft 182kts
07-Feb-19 19:27 33.911904 -118.359435 318 3715ft 183kts
07-Feb-19 19:28 33.951125 -118.397794 316 3719ft 184kts
07-Feb-19 19:29 33.990508 -118.437476 316 3717ft 187kts
07-Feb-19 19:30 34.032104 -118.475552 324 3713ft 189kts
07-Feb-19 19:31 34.073320 -118.514644 315 3708ft 188kts
07-Feb-19 19:32 34.117909 -118.545068 331 3778ft 187kts
07-Feb-19 19:33 34.159593 -118.578136 324 3748ft 159kts
07-Feb-19 19:34 34.193141 -118.605246 323 3753ft 136kts
07-Feb-19 19:35 34.220776 -118.610235 102 3528ft 127kts
07-Feb-19 19:36 34.214098 -118.574238 139 3713ft 115kts
07-Feb-19 19:37 34.180977 -118.572580 171 3789ft 135kts
07-Feb-19 19:38 34.146989 -118.574412 181 3657ft 114kts
07-Feb-19 19:39 34.138350 -118.601665 281 3766ft 124kts
07-Feb-19 19:40 34.148953 -118.645587 281 3848ft 142kts
07-Feb-19 19:41 34.172527 -118.681005 6 3737ft 162kts
07-Feb-19 19:42 34.197139 -118.640944 53 3845ft 146kts
07-Feb-19 19:43 34.197008 -118.596704 122 3826ft 140kts
07-Feb-19 19:44 34.192004 -118.569290 80 3744ft 153kts
07-Feb-19 19:45 34.195749 -118.522473 75 3865ft 148kts
07-Feb-19 19:47 34.179113 -118.499064 201 3921ft 134kts
07-Feb-19 19:48 34.147643 -118.510378 192 4470ft 112kts
07-Feb-19 19:49 34.133083 -118.537978 271 4866ft 123kts
07-Feb-19 19:50 34.137553 -118.587733 271 3859ft 160kts
07-Feb-19 19:51 34.151220 -118.625843 348 3775ft 119kts
07-Feb-19 19:52 34.182874 -118.630133 352 3787ft 128kts
07-Feb-19 19:53 34.219421 -118.635713 352 3773ft 125kts
07-Feb-19 19:54 34.252079 -118.641116 322 3764ft 114kts
07-Feb-19 19:55 34.245395 -118.662397 164 3742ft 93kts
07-Feb-19 19:56 34.218505 -118.650831 161 3747ft 120kts
07-Feb-19 19:57 34.199350 -118.615227 112 3734ft 141kts
07-Feb-19 19:58 34.200613 -118.568346 100 3911ft 121kts
07-Feb-19 19:59 34.200943 -118.530756 74 3426ft 114kts
07-Feb-19 20:00 34.199012 -118.492121 95 2713ft 112kts
07-Feb-19 20:01 34.199905 -118.455741 96 2163ft 109kts
07-Feb-19 20:02 34.198068 -118.420016 100 1600ft 105kts
07-Feb-19 20:03 34.198027 -118.386725 93 1082ft 98kts
07-Feb-19 20:04 34.197734 -118.359473 91 713ft 29kts
07-Feb-19 20:05 34.196776 -118.357084 64 707ft 0kts

Navigation Log

Ident Type
Flight plan parsing failed, navigation log unavailable